Time;durP1;ratioP1;P1;durP2;ratioP2;P2;SDS_P1;SDS_P2;PMS_P1;PMS_P2;Temp;Humidity;BMP_temperature;BMP_pressure;BME280_temperature;BME280_humidity;BME280_pressure;Samples;Min_cycle;Max_cycle;Signal;HPM_P1;HPM_P2
2024/01/02 00:00:41;;;;;;;9.80;4.93;;;;;;;-142.06;100.00;64312.41;5025022;28;20689;-79
2024/01/02 00:03:08;;;;;;;4.17;3.60;;;;;;;-142.06;100.00;64312.41;5056365;28;20194;-78
2024/01/02 00:05:36;;;;;;;5.30;3.40;;;;;;;-142.06;100.00;64312.41;5054528;28;20216;-79
2024/01/02 00:08:03;;;;;;;5.10;3.13;;;;;;;-142.06;100.00;64312.41;5053171;28;20331;-80
2024/01/02 00:10:30;;;;;;;5.20;3.30;;;;;;;-142.06;100.00;64312.41;5058319;28;20201;-78
2024/01/02 00:12:58;;;;;;;6.73;3.50;;;;;;;-142.06;100.00;64312.41;5022640;28;20209;-79
2024/01/02 00:15:25;;;;;;;4.20;3.03;;;;;;;-142.06;100.00;64312.41;5038093;28;20682;-80
2024/01/02 00:17:52;;;;;;;4.53;2.60;;;;;;;-142.06;100.00;64312.41;5054107;28;20201;-80
2024/01/02 00:20:19;;;;;;;4.30;3.30;;;;;;;-142.06;100.00;64312.41;5054323;28;20212;-78
2024/01/02 00:22:46;;;;;;;4.77;3.23;;;;;;;-142.06;100.00;64312.41;5037531;28;20214;-78
2024/01/02 00:25:13;;;;;;;4.10;3.27;;;;;;;-142.06;100.00;64312.41;5048914;28;20201;-79
2024/01/02 00:27:39;;;;;;;8.63;7.80;;;;;;;-142.06;100.00;64312.41;5057963;28;20212;-79
2024/01/02 00:30:07;;;;;;;5.83;3.77;;;;;;;-142.06;100.00;64312.41;5037965;28;20197;-79
2024/01/02 00:32:34;;;;;;;3.57;2.70;;;;;;;-142.06;100.00;64312.41;5054220;28;20241;-80
2024/01/02 00:35:01;;;;;;;4.27;3.37;;;;;;;-142.06;100.00;64312.41;5051166;28;20190;-83
2024/01/02 00:37:28;;;;;;;4.27;3.10;;;;;;;-142.06;100.00;64312.41;5043837;28;20239;-79
2024/01/02 00:39:55;;;;;;;4.03;3.23;;;;;;;-142.06;100.00;64312.41;5060716;28;20189;-81
2024/01/02 00:42:22;;;;;;;5.00;3.43;;;;;;;-142.06;100.00;64312.41;5047130;28;20201;-80
2024/01/02 00:44:49;;;;;;;5.00;3.40;;;;;;;-142.06;100.00;64312.41;5042763;28;20202;-80
2024/01/02 00:47:15;;;;;;;4.47;3.23;;;;;;;-142.06;100.00;64312.41;5038575;28;20221;-80
2024/01/02 00:49:42;;;;;;;6.43;2.57;;;;;;;-142.06;100.00;64312.41;5022514;28;20201;-79
2024/01/02 00:52:09;;;;;;;4.50;2.73;;;;;;;-142.06;100.00;64312.41;5036622;28;20206;-81
2024/01/02 00:54:36;;;;;;;5.73;2.70;;;;;;;-142.06;100.00;64312.41;5033304;28;20197;-80
2024/01/02 00:57:03;;;;;;;2.60;2.20;;;;;;;-142.06;100.00;64312.41;5039556;28;20198;-79
2024/01/02 00:59:29;;;;;;;3.07;2.50;;;;;;;-142.06;100.00;64312.41;5040752;28;20199;-79
2024/01/02 01:01:56;;;;;;;3.20;2.60;;;;;;;-142.06;100.00;64312.41;5055022;28;20225;-79
2024/01/02 01:04:24;;;;;;;3.73;2.80;;;;;;;-142.06;100.00;64312.41;5054773;28;20189;-79
2024/01/02 01:06:51;;;;;;;5.87;2.70;;;;;;;-142.06;100.00;64312.41;5037067;28;20216;-84
2024/01/02 01:09:18;;;;;;;5.57;2.87;;;;;;;-142.06;100.00;64312.41;5028805;28;20201;-79
2024/01/02 01:11:45;;;;;;;5.37;3.30;;;;;;;-142.06;100.00;64312.41;5054687;28;20290;-79
2024/01/02 01:14:12;;;;;;;3.73;2.90;;;;;;;-142.06;100.00;64312.41;5054426;28;20206;-80
2024/01/02 01:16:39;;;;;;;4.40;2.47;;;;;;;-142.06;100.00;64312.41;5041171;28;20193;-79
2024/01/02 01:19:05;;;;;;;3.53;2.57;;;;;;;-142.06;100.00;64312.41;5039246;28;20697;-79
2024/01/02 01:21:32;;;;;;;4.00;2.70;;;;;;;-142.06;100.00;64312.41;5035888;28;20197;-80
2024/01/02 01:23:59;;;;;;;3.87;2.27;;;;;;;-142.06;100.00;64312.41;5056956;28;20185;-80
2024/01/02 01:26:26;;;;;;;5.27;2.73;;;;;;;-142.06;100.00;64312.41;5057482;28;20202;-82
2024/01/02 01:28:53;;;;;;;3.17;2.30;;;;;;;-142.06;100.00;64312.41;5053229;28;20217;-82
2024/01/02 01:31:20;;;;;;;4.60;3.40;;;;;;;-142.06;100.00;64312.41;5054328;28;20713;-79
2024/01/02 01:33:47;;;;;;;5.27;2.87;;;;;;;-142.06;100.00;64312.41;5053098;28;20220;-80
2024/01/02 01:36:17;;;;;;;4.20;2.53;;;;;;;-142.06;100.00;64312.41;5057289;28;20193;-79
2024/01/02 01:38:44;;;;;;;4.17;2.50;;;;;;;-142.06;100.00;64312.41;5029303;28;20256;-82
2024/01/02 01:41:11;;;;;;;4.33;2.47;;;;;;;-142.06;100.00;64312.41;5050165;28;20685;-80
2024/01/02 01:43:37;;;;;;;5.23;2.60;;;;;;;-142.06;100.00;64312.41;5036394;28;20201;-80
2024/01/02 01:46:05;;;;;;;5.40;2.47;;;;;;;-142.06;100.00;64312.41;5049957;28;20292;-79
2024/01/02 01:48:33;;;;;;;4.80;2.83;;;;;;;-142.06;100.00;64312.41;5032366;28;20253;-79
2024/01/02 01:51:00;;;;;;;4.20;3.00;;;;;;;-142.06;100.00;64312.41;5041004;28;20255;-80
2024/01/02 01:53:28;;;;;;;3.90;2.60;;;;;;;-142.06;100.00;64312.41;5019813;28;20255;-80
2024/01/02 01:55:55;;;;;;;3.67;2.53;;;;;;;-142.06;100.00;64312.41;5040342;28;20204;-80
2024/01/02 01:58:22;;;;;;;4.13;2.73;;;;;;;-142.06;100.00;64312.41;5058297;28;20205;-80
2024/01/02 02:00:48;;;;;;;5.13;2.50;;;;;;;-142.06;100.00;64312.41;5037335;28;20266;-81
2024/01/02 02:03:16;;;;;;;3.43;2.40;;;;;;;-142.06;100.00;64312.41;5036440;28;20237;-82
2024/01/02 02:05:43;;;;;;;4.37;2.40;;;;;;;-142.06;100.00;64312.41;5027165;28;20208;-79
2024/01/02 02:08:10;;;;;;;4.80;2.30;;;;;;;-142.06;100.00;64312.41;5059084;28;20209;-80
2024/01/02 02:10:37;;;;;;;3.70;2.50;;;;;;;-142.06;100.00;64312.41;5037103;28;20197;-79
2024/01/02 02:13:04;;;;;;;3.63;2.63;;;;;;;-142.06;100.00;64312.41;5036819;28;20209;-79
2024/01/02 02:15:31;;;;;;;4.30;2.33;;;;;;;-142.06;100.00;64312.41;5016428;28;20816;-81
2024/01/02 02:17:58;;;;;;;3.93;2.53;;;;;;;-142.06;100.00;64312.41;5036035;28;20212;-79
2024/01/02 02:20:25;;;;;;;4.37;2.60;;;;;;;-142.06;100.00;64312.41;5039957;28;20290;-82
2024/01/02 02:22:52;;;;;;;4.37;2.67;;;;;;;-142.06;100.00;64312.41;5056659;28;20197;-80
2024/01/02 02:25:19;;;;;;;3.63;2.70;;;;;;;-142.06;100.00;64312.41;5054772;28;20197;-81
2024/01/02 02:27:46;;;;;;;4.07;2.50;;;;;;;-142.06;100.00;64312.41;5020706;28;20279;-81
2024/01/02 02:30:13;;;;;;;4.73;2.50;;;;;;;-142.06;100.00;64312.41;5052859;28;20202;-81
2024/01/02 02:32:40;;;;;;;5.27;2.50;;;;;;;-142.06;100.00;64312.41;5035516;28;20218;-80
2024/01/02 02:35:08;;;;;;;3.47;2.50;;;;;;;-142.06;100.00;64312.41;5038247;28;20206;-83
2024/01/02 02:37:35;;;;;;;5.57;2.77;;;;;;;-142.06;100.00;64312.41;5024571;28;20311;-81
2024/01/02 02:40:03;;;;;;;4.07;2.57;;;;;;;-142.06;100.00;64312.41;5031343;28;20224;-79
2024/01/02 02:42:30;;;;;;;5.27;2.80;;;;;;;-142.06;100.00;64312.41;5018253;28;20189;-83
2024/01/02 02:44:58;;;;;;;4.87;3.00;;;;;;;-142.06;100.00;64312.41;5019064;28;20236;-80
2024/01/02 02:47:25;;;;;;;3.33;2.50;;;;;;;-142.06;100.00;64312.41;5037991;28;20205;-79
2024/01/02 02:49:52;;;;;;;4.03;2.90;;;;;;;-142.06;100.00;64312.41;5048930;28;20194;-81
2024/01/02 02:52:20;;;;;;;6.30;3.20;;;;;;;-142.06;100.00;64312.41;5051512;28;20197;-80
2024/01/02 02:54:47;;;;;;;5.43;2.90;;;;;;;-142.06;100.00;64312.41;5033691;28;20909;-83
2024/01/02 02:57:14;;;;;;;3.50;2.53;;;;;;;-142.06;100.00;64312.41;5035576;28;20208;-80
2024/01/02 02:59:40;;;;;;;5.00;3.10;;;;;;;-142.06;100.00;64312.41;5038426;28;20573;-79
2024/01/02 03:02:07;;;;;;;3.57;2.70;;;;;;;-142.06;100.00;64312.41;5050162;28;20213;-79
2024/01/02 03:04:34;;;;;;;5.80;2.83;;;;;;;-142.06;100.00;64312.41;5052728;28;20204;-81
2024/01/02 03:07:01;;;;;;;3.97;2.63;;;;;;;-142.06;100.00;64312.41;5052410;28;20201;-79
2024/01/02 03:09:28;;;;;;;5.30;2.60;;;;;;;-142.06;100.00;64312.41;5034632;28;20226;-87
2024/01/02 03:11:55;;;;;;;5.07;3.00;;;;;;;-142.06;100.00;64312.41;5033576;28;20198;-82
2024/01/02 03:14:22;;;;;;;4.70;3.20;;;;;;;-142.06;100.00;64312.41;5049831;28;20216;-78
2024/01/02 03:16:49;;;;;;;4.43;2.90;;;;;;;-142.06;100.00;64312.41;5019267;28;20308;-80
2024/01/02 03:19:15;;;;;;;4.90;2.80;;;;;;;-142.06;100.00;64312.41;5051852;28;20200;-82
2024/01/02 03:21:42;;;;;;;6.03;3.50;;;;;;;-142.06;100.00;64312.41;5037947;28;20642;-79
2024/01/02 03:24:09;;;;;;;3.83;2.97;;;;;;;-142.06;100.00;64312.41;5037383;28;20205;-80
2024/01/02 03:26:36;;;;;;;6.93;3.27;;;;;;;-142.06;100.00;64312.41;5019302;28;20232;-80
2024/01/02 03:29:03;;;;;;;4.93;3.13;;;;;;;-142.06;100.00;64312.41;5050261;28;20506;-80
2024/01/02 03:31:30;;;;;;;6.27;2.93;;;;;;;-142.06;100.00;64312.41;5035680;28;20280;-82
2024/01/02 03:33:57;;;;;;;5.07;3.33;;;;;;;-142.06;100.00;64312.41;5054590;28;20262;-81
2024/01/02 03:36:24;;;;;;;4.57;3.00;;;;;;;-142.06;100.00;64312.41;5045691;28;20202;-78
2024/01/02 03:38:54;;;;;;;4.63;2.83;;;;;;;-142.06;100.00;64312.41;5053246;28;20229;-81
2024/01/02 03:41:21;;;;;;;5.03;2.70;;;;;;;-142.06;100.00;64312.41;5034457;28;20658;-79
2024/01/02 03:43:48;;;;;;;7.53;2.77;;;;;;;-142.06;100.00;64312.41;5050867;28;20203;-81
2024/01/02 03:46:14;;;;;;;5.70;2.40;;;;;;;-142.06;100.00;64312.41;5023045;28;20692;-78
2024/01/02 03:48:41;;;;;;;5.13;2.60;;;;;;;-142.06;100.00;64312.41;5051795;28;20209;-81
2024/01/02 03:51:08;;;;;;;4.77;2.27;;;;;;;-142.06;100.00;64312.41;5046744;28;20735;-80
2024/01/02 03:53:35;;;;;;;5.10;2.27;;;;;;;-142.06;100.00;64312.41;5049567;28;20255;-78
2024/01/02 03:56:02;;;;;;;3.87;2.13;;;;;;;-142.06;100.00;64312.41;5052062;28;20312;-79
2024/01/02 03:58:30;;;;;;;4.00;1.90;;;;;;;-142.06;100.00;64312.41;5052240;28;20304;-80
2024/01/02 04:00:57;;;;;;;6.93;2.40;;;;;;;-142.06;100.00;64312.41;5045212;28;20219;-81
2024/01/02 04:03:24;;;;;;;7.17;2.30;;;;;;;-142.06;100.00;64312.41;5034448;28;20259;-81
2024/01/02 04:05:53;;;;;;;4.60;2.10;;;;;;;-142.06;100.00;64312.41;5052947;28;20280;-81
2024/01/02 04:08:20;;;;;;;7.53;2.13;;;;;;;-142.06;100.00;64312.41;5033590;28;20222;-81
2024/01/02 04:10:47;;;;;;;4.47;2.23;;;;;;;-142.06;100.00;64312.41;5050015;28;20271;-80
2024/01/02 04:13:14;;;;;;;5.40;2.10;;;;;;;-142.06;100.00;64312.41;5054450;28;20198;-80
2024/01/02 04:15:41;;;;;;;6.60;2.40;;;;;;;-142.06;100.00;64312.41;5052739;28;20198;-79
2024/01/02 04:18:08;;;;;;;5.53;2.77;;;;;;;-142.06;100.00;64312.41;5050581;28;20198;-81
2024/01/02 04:20:35;;;;;;;4.13;2.07;;;;;;;-142.06;100.00;64312.41;5053394;28;20239;-78
2024/01/02 04:23:03;;;;;;;4.50;1.73;;;;;;;-142.06;100.00;64312.41;5050706;28;20209;-81
2024/01/02 04:25:29;;;;;;;4.87;1.70;;;;;;;-142.06;100.00;64312.41;5053174;28;20229;-79
2024/01/02 04:27:56;;;;;;;5.53;2.10;;;;;;;-142.06;100.00;64312.41;5034779;28;20189;-79
2024/01/02 04:30:23;;;;;;;5.10;1.90;;;;;;;-142.06;100.00;64312.41;5054998;28;20196;-80
2024/01/02 04:32:50;;;;;;;5.17;2.10;;;;;;;-142.06;100.00;64312.41;5044179;28;20264;-79
2024/01/02 04:35:18;;;;;;;6.50;2.00;;;;;;;-142.06;100.00;64312.41;5043418;28;20207;-80
2024/01/02 04:37:45;;;;;;;4.20;1.77;;;;;;;-142.06;100.00;64312.41;5046643;28;20229;-79
2024/01/02 04:40:12;;;;;;;6.13;1.50;;;;;;;-142.06;100.00;64312.41;5037426;28;20201;-80
2024/01/02 04:42:39;;;;;;;3.93;1.60;;;;;;;-142.06;100.00;64312.41;5040280;28;20197;-80
2024/01/02 04:45:08;;;;;;;6.73;2.23;;;;;;;-142.06;100.00;64312.41;5038406;28;20209;-80
2024/01/02 04:47:35;;;;;;;4.33;2.27;;;;;;;-142.06;100.00;64312.41;5066075;28;20201;-80
2024/01/02 04:50:04;;;;;;;7.73;2.00;;;;;;;-142.06;100.00;64312.41;5054554;28;20689;-81
2024/01/02 04:52:31;;;;;;;5.20;1.83;;;;;;;-142.06;100.00;64312.41;5041343;28;20206;-80
2024/01/02 04:54:59;;;;;;;5.40;1.77;;;;;;;-142.06;100.00;64312.41;5075720;28;20274;-82
2024/01/02 04:57:26;;;;;;;4.47;1.83;;;;;;;-142.06;100.00;64312.41;5046939;28;20196;-80
2024/01/02 04:59:53;;;;;;;3.60;1.70;;;;;;;-142.06;100.00;64312.41;5061458;28;20196;-80
2024/01/02 05:02:22;;;;;;;2.90;1.43;;;;;;;-142.06;100.00;64312.41;5058624;28;20213;-79
2024/01/02 05:04:51;;;;;;;3.20;1.50;;;;;;;-142.06;100.00;64312.41;5049475;28;20201;-80
2024/01/02 05:07:18;;;;;;;3.30;1.70;;;;;;;-142.06;100.00;64312.41;5057904;28;20294;-79
2024/01/02 05:09:45;;;;;;;4.43;1.70;;;;;;;-142.06;100.00;64312.41;5051784;28;20248;-80
2024/01/02 05:12:12;;;;;;;2.33;1.37;;;;;;;-142.06;100.00;64312.41;5053526;28;20201;-80
2024/01/02 05:14:39;;;;;;;2.90;1.60;;;;;;;-142.06;100.00;64312.41;5053786;28;20292;-80
2024/01/02 05:17:08;;;;;;;3.97;1.63;;;;;;;-142.06;100.00;64312.41;5036588;28;20209;-81
2024/01/02 05:19:35;;;;;;;4.43;1.67;;;;;;;-142.06;100.00;64312.41;5039074;28;20214;-79
2024/01/02 05:22:03;;;;;;;3.67;1.60;;;;;;;-142.06;100.00;64312.41;5052636;28;20201;-80
2024/01/02 05:24:31;;;;;;;5.10;1.70;;;;;;;-142.06;100.00;64312.41;5053257;28;20207;-79
2024/01/02 05:26:57;;;;;;;3.93;1.70;;;;;;;-142.06;100.00;64312.41;5052822;28;20197;-80
2024/01/02 05:29:24;;;;;;;2.60;1.40;;;;;;;-142.06;100.00;64312.41;5052577;28;20239;-80
2024/01/02 05:31:51;;;;;;;5.93;1.40;;;;;;;-142.06;100.00;64312.41;5053535;28;20200;-79
2024/01/02 05:34:19;;;;;;;4.83;1.50;;;;;;;-142.06;100.00;64312.41;5055190;28;20194;-80
2024/01/02 05:36:46;;;;;;;1.53;1.13;;;;;;;-142.06;100.00;64312.41;5052308;28;20255;-81
2024/01/02 05:39:13;;;;;;;2.07;1.13;;;;;;;-142.06;100.00;64312.41;5036202;28;20285;-81
2024/01/02 05:41:40;;;;;;;3.07;1.37;;;;;;;-142.06;100.00;64312.41;5053808;28;20205;-80
2024/01/02 05:44:08;;;;;;;3.53;1.40;;;;;;;-142.06;100.00;64312.41;5053371;28;20209;-83
2024/01/02 05:46:35;;;;;;;1.97;1.40;;;;;;;-142.06;100.00;64312.41;5053748;28;20268;-81
2024/01/02 05:49:02;;;;;;;2.30;1.03;;;;;;;-142.06;100.00;64312.41;5051412;28;20220;-79
2024/01/02 05:51:29;;;;;;;1.93;1.20;;;;;;;-142.06;100.00;64312.41;5053840;28;20201;-82
2024/01/02 05:53:56;;;;;;;3.17;1.33;;;;;;;-142.06;100.00;64312.41;5052079;28;20182;-81
2024/01/02 05:56:22;;;;;;;2.20;1.23;;;;;;;-142.06;100.00;64312.41;5052179;28;20216;-80
2024/01/02 05:59:40;;;;;;;2.30;1.23;;;;;;;-142.06;100.00;64312.41;5050616;28;20247;-80
2024/01/02 06:02:32;;;;;;;1.57;1.07;;;;;;;-142.06;100.00;64312.41;5048476;28;20203;-78
2024/01/02 06:04:59;;;;;;;3.13;1.20;;;;;;;-142.06;100.00;64312.41;5059437;28;20186;-80
2024/01/02 06:07:26;;;;;;;2.43;1.10;;;;;;;-142.06;100.00;64312.41;5019132;28;20698;-80
2024/01/02 06:09:53;;;;;;;2.97;1.20;;;;;;;-142.06;100.00;64312.41;5054300;28;20580;-79
2024/01/02 06:12:20;;;;;;;2.40;1.20;;;;;;;-142.06;100.00;64312.41;5048777;28;20197;-80
2024/01/02 06:14:47;;;;;;;2.33;1.20;;;;;;;-142.06;100.00;64312.41;5052203;28;20197;-80
2024/01/02 06:17:14;;;;;;;2.40;1.20;;;;;;;-142.06;100.00;64312.41;5053286;28;20273;-81
2024/01/02 06:19:40;;;;;;;1.57;1.03;;;;;;;-142.06;100.00;64312.41;5034213;28;20202;-80
2024/01/02 06:22:07;;;;;;;2.50;1.30;;;;;;;-142.06;100.00;64312.41;5051681;28;20207;-82
2024/01/02 06:24:34;;;;;;;2.23;1.27;;;;;;;-142.06;100.00;64312.41;5052469;28;20399;-81
2024/01/02 06:27:01;;;;;;;1.97;1.17;;;;;;;-142.06;100.00;64312.41;5031621;28;20550;-81
2024/01/02 06:29:27;;;;;;;2.77;1.10;;;;;;;-142.06;100.00;64312.41;5034511;28;20226;-82
2024/01/02 06:31:54;;;;;;;3.27;1.40;;;;;;;-142.06;100.00;64312.41;5050066;28;20260;-82
2024/01/02 06:34:21;;;;;;;2.10;1.20;;;;;;;-142.06;100.00;64312.41;5050225;28;20220;-80
2024/01/02 06:36:48;;;;;;;2.13;1.30;;;;;;;-142.06;100.00;64312.41;5034483;28;20205;-80
2024/01/02 06:39:15;;;;;;;1.10;0.90;;;;;;;-142.06;100.00;64312.41;5034926;28;20201;-81
2024/01/02 06:41:43;;;;;;;2.10;1.20;;;;;;;-142.06;100.00;64312.41;5051627;28;20208;-81
2024/01/02 06:44:11;;;;;;;1.87;1.10;;;;;;;-142.06;100.00;64312.41;5044395;28;20674;-82
2024/01/02 06:46:38;;;;;;;2.03;1.10;;;;;;;-142.06;100.00;64312.41;5045595;28;20221;-82
2024/01/02 06:49:05;;;;;;;1.40;1.00;;;;;;;-142.06;100.00;64312.41;5031625;28;20924;-78
2024/01/02 06:51:31;;;;;;;1.33;1.07;;;;;;;-142.06;100.00;64312.41;5053571;28;20193;-80
2024/01/02 06:53:58;;;;;;;1.03;0.93;;;;;;;-142.06;100.00;64312.41;5038387;28;20197;-82
2024/01/02 06:56:25;;;;;;;1.53;0.90;;;;;;;-142.06;100.00;64312.41;5037492;28;20217;-82
2024/01/02 06:58:53;;;;;;;1.03;0.90;;;;;;;-142.06;100.00;64312.41;5016898;28;20225;-81
2024/01/02 07:01:23;;;;;;;1.57;1.10;;;;;;;-142.06;100.00;64312.41;5050741;28;20202;-80
2024/01/02 07:03:49;;;;;;;2.47;1.00;;;;;;;-142.06;100.00;64312.41;5049051;28;20197;-79
2024/01/02 07:06:17;;;;;;;1.90;1.00;;;;;;;-142.06;100.00;64312.41;5053648;28;20342;-80
2024/01/02 07:08:45;;;;;;;1.43;1.10;;;;;;;-142.06;100.00;64312.41;5036176;28;20300;-81
2024/01/02 07:11:12;;;;;;;1.57;1.00;;;;;;;-142.06;100.00;64312.41;5051934;28;20276;-81
2024/01/02 07:13:39;;;;;;;1.40;1.10;;;;;;;-142.06;100.00;64312.41;5050562;28;20221;-80
2024/01/02 07:16:06;;;;;;;1.30;0.90;;;;;;;-142.06;100.00;64312.41;5047911;28;20244;-79
2024/01/02 07:18:33;;;;;;;1.07;0.83;;;;;;;-142.06;100.00;64312.41;5053329;28;20193;-80
2024/01/02 07:21:00;;;;;;;1.57;1.00;;;;;;;-142.06;100.00;64312.41;5047263;28;20210;-81
2024/01/02 07:23:27;;;;;;;2.67;1.13;;;;;;;-142.06;100.00;64312.41;5048036;28;20197;-80
2024/01/02 07:25:54;;;;;;;2.70;1.07;;;;;;;-142.06;100.00;64312.41;5044059;28;20269;-80
2024/01/02 07:28:21;;;;;;;2.13;1.23;;;;;;;-142.06;100.00;64312.41;5050200;28;20200;-81
2024/01/02 07:30:50;;;;;;;1.30;1.10;;;;;;;-142.06;100.00;64312.41;5053403;28;20316;-78
2024/01/02 07:33:17;;;;;;;1.17;1.00;;;;;;;-142.06;100.00;64312.41;5051537;28;20209;-82
2024/01/02 07:35:44;;;;;;;2.07;1.20;;;;;;;-142.06;100.00;64312.41;5050929;28;20189;-79
2024/01/02 07:38:11;;;;;;;1.77;1.20;;;;;;;-142.06;100.00;64312.41;5050397;28;20233;-79
2024/01/02 07:40:39;;;;;;;2.17;1.30;;;;;;;-142.06;100.00;64312.41;5050535;28;20205;-79
2024/01/02 07:43:06;;;;;;;1.13;0.83;;;;;;;-142.06;100.00;64312.41;5031869;28;20206;-80
2024/01/02 07:45:32;;;;;;;1.30;1.03;;;;;;;-142.06;100.00;64312.41;5050256;28;20213;-79
2024/01/02 07:47:59;;;;;;;1.47;1.10;;;;;;;-142.06;100.00;64312.41;5051820;28;20231;-80
2024/01/02 07:50:26;;;;;;;3.23;1.50;;;;;;;-142.06;100.00;64312.41;5049182;28;20233;-80
2024/01/02 07:52:53;;;;;;;2.73;1.40;;;;;;;-142.06;100.00;64312.41;5051633;28;20190;-80
2024/01/02 07:55:20;;;;;;;1.97;1.37;;;;;;;-142.06;100.00;64312.41;5035878;28;20764;-82
2024/01/02 07:57:47;;;;;;;1.53;1.40;;;;;;;-142.06;100.00;64312.41;5036878;28;20197;-80
2024/01/02 08:00:14;;;;;;;1.33;1.10;;;;;;;-142.06;100.00;64312.41;5052947;28;20209;-81
2024/01/02 08:02:41;;;;;;;1.43;1.20;;;;;;;-142.06;100.00;64312.41;5051490;28;20242;-79
2024/01/02 08:05:08;;;;;;;1.13;1.00;;;;;;;-142.06;100.00;64312.41;5051443;28;20213;-80
2024/01/02 08:07:35;;;;;;;1.30;1.20;;;;;;;-142.06;100.00;64312.41;5033653;28;20212;-79
2024/01/02 08:10:03;;;;;;;2.00;1.20;;;;;;;-142.06;100.00;64312.41;5033382;28;20225;-80
2024/01/02 08:12:30;;;;;;;1.73;1.60;;;;;;;-142.06;100.00;64312.41;5052222;28;20196;-79
2024/01/02 08:14:57;;;;;;;2.37;1.60;;;;;;;-142.06;100.00;64312.41;5055182;28;20189;-80
2024/01/02 08:17:24;;;;;;;3.40;1.40;;;;;;;-142.06;100.00;64312.41;5037245;28;20213;-81
2024/01/02 08:19:51;;;;;;;2.37;2.17;;;;;;;-142.06;100.00;64312.41;5037232;28;20224;-81
2024/01/02 08:22:18;;;;;;;2.50;2.13;;;;;;;-142.06;100.00;64312.41;5037512;28;20197;-79
2024/01/02 08:24:45;;;;;;;2.20;2.00;;;;;;;-142.06;100.00;64312.41;5053889;28;20201;-78
2024/01/02 08:27:13;;;;;;;2.50;2.30;;;;;;;-142.06;100.00;64312.41;5054361;28;20206;-78
2024/01/02 08:29:39;;;;;;;2.57;2.00;;;;;;;-142.06;100.00;64312.41;5055023;28;20210;-78
2024/01/02 08:32:10;;;;;;;1.97;1.57;;;;;;;-142.06;100.00;64312.41;5053766;28;20221;-80
2024/01/02 08:34:39;;;;;;;3.27;1.90;;;;;;;-142.06;100.00;64312.41;5056253;28;20197;-80
2024/01/02 08:37:06;;;;;;;2.53;1.80;;;;;;;-142.06;100.00;64312.41;5035661;28;20723;-79
2024/01/02 08:39:32;;;;;;;4.43;1.70;;;;;;;-142.06;100.00;64312.41;5034240;28;20228;-81
2024/01/02 08:41:59;;;;;;;2.80;2.00;;;;;;;-142.06;100.00;64312.41;5054318;28;20189;-79
2024/01/02 08:44:26;;;;;;;2.80;1.80;;;;;;;-142.06;100.00;64312.41;5055820;28;20194;-80
2024/01/02 08:46:53;;;;;;;2.17;1.90;;;;;;;-142.06;100.00;64312.41;5053735;28;20216;-80
2024/01/02 08:49:20;;;;;;;3.20;1.63;;;;;;;-142.06;100.00;64312.41;5054507;28;20189;-80
2024/01/02 08:51:47;;;;;;;2.67;1.47;;;;;;;-142.06;100.00;64312.41;5054794;28;20189;-80
2024/01/02 08:54:14;;;;;;;3.27;1.90;;;;;;;-142.06;100.00;64312.41;5040919;28;20206;-79
2024/01/02 08:56:41;;;;;;;2.70;1.70;;;;;;;-142.06;100.00;64312.41;5055642;28;20201;-79
2024/01/02 08:59:07;;;;;;;1.57;1.43;;;;;;;-142.06;100.00;64312.41;5051936;28;20257;-79
2024/01/02 09:01:34;;;;;;;1.70;1.37;;;;;;;-142.06;100.00;64312.41;5056714;28;20296;-82
2024/01/02 09:04:01;;;;;;;1.23;1.10;;;;;;;-142.06;100.00;64312.41;5051400;28;20212;-79
2024/01/02 09:06:32;;;;;;;1.60;1.23;;;;;;;-142.06;100.00;64312.41;5056445;28;20194;-79
2024/01/02 09:08:59;;;;;;;2.17;1.27;;;;;;;-142.06;100.00;64312.41;5049507;28;20198;-78
2024/01/02 09:11:26;;;;;;;3.73;1.50;;;;;;;-142.06;100.00;64312.41;5053286;28;20229;-80
2024/01/02 09:13:53;;;;;;;2.27;1.20;;;;;;;-142.06;100.00;64312.41;5053121;28;20204;-80
2024/01/02 09:16:20;;;;;;;2.87;1.50;;;;;;;-142.06;100.00;64312.41;5053035;28;20748;-80
2024/01/02 09:18:46;;;;;;;2.07;1.30;;;;;;;-142.06;100.00;64312.41;5053433;28;20189;-80
2024/01/02 09:21:13;;;;;;;2.70;1.73;;;;;;;-142.06;100.00;64312.41;5053445;28;20680;-78
2024/01/02 09:23:40;;;;;;;2.43;1.47;;;;;;;-142.06;100.00;64312.41;5047413;28;20201;-78
2024/01/02 09:26:13;;;;;;;1.67;1.40;;;;;;;-142.06;100.00;64312.41;5033074;28;20212;-79
2024/01/02 09:28:42;;;;;;;1.53;1.30;;;;;;;-142.06;100.00;64312.41;5030327;28;20219;-80
2024/01/02 09:31:08;;;;;;;2.17;1.50;;;;;;;-142.06;100.00;64312.41;5051492;28;20262;-79
2024/01/02 09:33:38;;;;;;;2.30;1.30;;;;;;;-142.06;100.00;64312.41;5052365;28;20323;-83
2024/01/02 09:36:08;;;;;;;2.03;1.10;;;;;;;-142.06;100.00;64312.41;5033638;28;20236;-79
2024/01/02 09:38:38;;;;;;;2.67;1.70;;;;;;;-142.06;100.00;64312.41;5033912;28;20610;-79
2024/01/02 09:41:13;;;;;;;2.60;1.80;;;;;;;-142.06;100.00;64312.41;5033125;28;20227;-81
2024/01/02 09:44:09;;;;;;;3.67;1.67;;;;;;;-142.06;100.00;64312.41;5051341;28;20557;-80
2024/01/02 09:46:40;;;;;;;2.47;1.80;;;;;;;-142.06;100.00;64312.41;5033745;28;20217;-80
2024/01/02 09:49:24;;;;;;;1.90;1.70;;;;;;;-142.06;100.00;64312.41;5048744;28;20193;-83
2024/01/02 09:52:09;;;;;;;4.57;3.03;;;;;;;-142.06;100.00;64312.41;5051162;28;20233;-80
2024/01/02 09:54:58;;;;;;;4.43;3.10;;;;;;;-142.06;100.00;64312.41;5050567;28;20198;-79
2024/01/02 09:57:34;;;;;;;3.90;2.70;;;;;;;-142.06;100.00;64312.41;5067142;28;20678;-81
2024/01/02 10:00:11;;;;;;;3.40;2.50;;;;;;;-142.06;100.00;64312.41;5051191;28;20193;-81
2024/01/02 10:02:50;;;;;;;3.10;2.27;;;;;;;-142.06;100.00;64312.41;5034149;28;20224;-80
2024/01/02 10:05:20;;;;;;;2.70;2.20;;;;;;;-142.06;100.00;64312.41;5050580;28;20237;-80
2024/01/02 10:08:20;;;;;;;4.60;3.10;;;;;;;-142.06;100.00;64312.41;5050833;28;20213;-80
2024/01/02 10:10:59;;;;;;;4.43;3.37;;;;;;;-142.06;100.00;64312.41;5030465;28;20326;-78
2024/01/02 10:13:44;;;;;;;6.63;3.93;;;;;;;-142.06;100.00;64312.41;5051594;28;20187;-79
2024/01/02 10:16:30;;;;;;;4.97;3.30;;;;;;;-142.06;100.00;64312.41;5047519;28;20197;-79
2024/01/02 10:19:02;;;;;;;5.47;3.40;;;;;;;-142.06;100.00;64312.41;5050550;28;20292;-78
2024/01/02 10:21:45;;;;;;;4.23;3.17;;;;;;;-142.06;100.00;64312.41;5049358;28;20189;-80
2024/01/02 10:24:40;;;;;;;2.87;2.50;;;;;;;-142.06;100.00;64312.41;5047442;28;20271;-81
2024/01/02 10:27:12;;;;;;;3.03;2.17;;;;;;;-142.06;100.00;64312.41;5046957;28;20225;-81
2024/01/02 10:29:48;;;;;;;3.13;2.23;;;;;;;-142.06;100.00;64312.41;5054412;28;20192;-79
2024/01/02 10:32:28;;;;;;;4.43;2.70;;;;;;;-142.06;100.00;64312.41;5052447;28;20235;-79
2024/01/02 10:35:15;;;;;;;3.10;2.80;;;;;;;-142.06;100.00;64312.41;5034554;28;20201;-81
2024/01/02 10:38:04;;;;;;;3.47;2.70;;;;;;;-142.06;100.00;64312.41;5037092;28;20229;-81
2024/01/02 10:40:32;;;;;;;4.47;2.90;;;;;;;-142.06;100.00;64312.41;5050991;28;20199;-81
2024/01/02 10:43:10;;;;;;;3.13;2.80;;;;;;;-142.06;100.00;64312.41;5042535;28;20200;-79
2024/01/02 10:45:47;;;;;;;3.90;2.63;;;;;;;-142.06;100.00;64312.41;5034483;28;20258;-76
2024/01/02 10:48:24;;;;;;;3.67;2.40;;;;;;;-142.06;100.00;64312.41;5049887;28;20272;-82
2024/01/02 10:51:04;;;;;;;2.93;2.47;;;;;;;-142.06;100.00;64312.41;5035556;28;20217;-81
2024/01/02 10:53:50;;;;;;;4.27;2.40;;;;;;;-142.06;100.00;64312.41;5051884;28;20190;-78
2024/01/02 10:56:32;;;;;;;6.27;3.00;;;;;;;-142.06;100.00;64312.41;5053162;28;20765;-79
2024/01/02 10:59:22;;;;;;;13.60;4.03;;;;;;;-142.06;100.00;64312.41;5049803;28;20200;-80
2024/01/02 11:01:52;;;;;;;3.60;2.50;;;;;;;-142.06;100.00;64312.41;5052387;28;20272;-82
2024/01/02 11:04:46;;;;;;;4.80;3.50;;;;;;;-142.06;100.00;64312.41;5051943;28;20212;-78
2024/01/02 11:07:14;;;;;;;4.10;3.37;;;;;;;-142.06;100.00;64312.41;5042630;28;20245;-80
2024/01/02 11:09:41;;;;;;;3.33;2.93;;;;;;;-142.06;100.00;64312.41;5056090;28;20246;-81
2024/01/02 11:12:08;;;;;;;3.50;2.10;;;;;;;-142.06;100.00;64312.41;5052097;28;20193;-81
2024/01/02 11:14:42;;;;;;;2.77;2.20;;;;;;;-142.06;100.00;64312.41;5052366;28;20199;-79
2024/01/02 11:18:00;;;;;;;3.20;2.20;;;;;;;-142.06;100.00;64312.41;5050685;28;20189;-79